createdAt,value
2022-10-16T00:01:41.330Z,6.55
2022-10-16T00:04:09.760Z,6.22
2022-10-16T00:06:37.286Z,6.07
2022-10-16T00:09:04.951Z,6.32
2022-10-16T00:11:39.927Z,5.97
2022-10-16T00:14:12.289Z,6.07
2022-10-16T00:16:40.276Z,6.45
2022-10-16T00:19:07.879Z,5.47
2022-10-16T00:21:35.309Z,5.53
2022-10-16T00:24:21.052Z,5.85
2022-10-16T00:26:50.376Z,6.28
2022-10-16T00:29:17.901Z,6.72
2022-10-16T00:31:45.380Z,6.25
2022-10-16T00:34:12.749Z,5.55
2022-10-16T00:36:40.312Z,5.68
2022-10-16T00:39:08.216Z,5.72
2022-10-16T00:41:35.741Z,5.53
2022-10-16T00:44:24.723Z,5.60
2022-10-16T00:46:52.154Z,5.60
2022-10-16T00:49:21.276Z,6.00
2022-10-16T00:51:51.217Z,5.50
2022-10-16T00:54:25.949Z,5.82
2022-10-16T00:56:55.205Z,6.00
2022-10-16T00:59:40.388Z,5.45
2022-10-16T01:02:10.676Z,6.25
2022-10-16T01:04:40.031Z,5.95
2022-10-16T01:07:32.436Z,5.47
2022-10-16T01:10:16.448Z,5.70
2022-10-16T01:12:56.236Z,5.70
2022-10-16T01:15:30.722Z,5.37
2022-10-16T01:17:59.758Z,6.32
2022-10-16T01:20:33.232Z,5.70
2022-10-16T01:23:21.723Z,6.00
2022-10-16T01:26:28.780Z,5.25
2022-10-16T01:28:59.796Z,5.65
2022-10-16T01:31:30.603Z,6.10
2022-10-16T01:34:04.229Z,5.47
2022-10-16T01:36:39.285Z,5.68
2022-10-16T01:39:07.994Z,5.60
2022-10-16T01:41:43.006Z,5.75
2022-10-16T01:44:27.070Z,5.75
2022-10-16T01:46:55.171Z,5.87
2022-10-16T01:49:24.593Z,5.87
2022-10-16T01:51:56.527Z,6.05
2022-10-16T01:54:29.784Z,5.50
2022-10-16T01:56:57.707Z,6.10
2022-10-16T01:59:27.369Z,5.93
2022-10-16T02:01:58.432Z,5.12
2022-10-16T02:07:01.918Z,6.05
2022-10-16T02:09:30.968Z,5.53
2022-10-16T02:12:00.649Z,5.93
2022-10-16T02:14:28.016Z,6.90
2022-10-16T02:16:55.713Z,6.20
2022-10-16T02:19:23.260Z,5.75
2022-10-16T02:21:52.912Z,6.10
2022-10-16T02:24:51.670Z,5.53
2022-10-16T02:27:24.716Z,5.90
2022-10-16T02:29:59.732Z,5.85
2022-10-16T02:32:31.706Z,5.65
2022-10-16T02:35:00.441Z,6.00
2022-10-16T02:37:28.295Z,6.18
2022-10-16T02:39:57.815Z,6.07
2022-10-16T02:42:31.024Z,5.97
2022-10-16T02:44:58.568Z,6.12
2022-10-16T02:47:26.160Z,5.80
2022-10-16T02:49:53.532Z,6.10
2022-10-16T02:52:20.802Z,5.32
2022-10-16T02:54:48.382Z,6.28
2022-10-16T02:57:15.775Z,6.05
2022-10-16T02:59:43.072Z,5.93
2022-10-16T03:02:10.649Z,6.05
2022-10-16T03:04:38.139Z,6.25
2022-10-16T03:07:05.615Z,6.07
2022-10-16T03:09:33.260Z,6.25
2022-10-16T03:12:00.555Z,5.82
2022-10-16T03:17:00.404Z,6.10
2022-10-16T03:19:27.695Z,5.65
2022-10-16T03:21:54.992Z,5.60
2022-10-16T03:24:22.536Z,6.18
2022-10-16T03:26:49.807Z,6.15
2022-10-16T03:29:17.124Z,5.72
2022-10-16T03:31:44.724Z,5.53
2022-10-16T03:34:12.183Z,5.80
2022-10-16T03:36:39.478Z,5.50
2022-10-16T03:39:07.244Z,5.90
2022-10-16T03:41:34.525Z,6.05
2022-10-16T03:44:01.824Z,5.78
2022-10-16T03:46:29.647Z,6.22
2022-10-16T03:48:56.950Z,7.25
2022-10-16T03:51:24.315Z,8.10
2022-10-16T03:53:51.985Z,6.00
2022-10-16T03:56:19.268Z,7.03
2022-10-16T03:58:46.565Z,6.20
2022-10-16T04:01:14.198Z,6.80
2022-10-16T04:03:42.040Z,6.20
2022-10-16T04:06:09.843Z,6.78
2022-10-16T04:08:37.632Z,7.12
2022-10-16T04:11:05.717Z,6.55
2022-10-16T04:13:33.015Z,6.50
2022-10-16T04:16:00.324Z,6.15
2022-10-16T04:18:28.237Z,6.22
2022-10-16T04:20:55.556Z,5.47
2022-10-16T04:23:23.951Z,6.18
2022-10-16T04:25:51.878Z,6.37
2022-10-16T04:28:19.218Z,6.28
2022-10-16T04:30:46.564Z,6.53
2022-10-16T04:33:14.128Z,5.78
2022-10-16T04:35:41.478Z,5.95
2022-10-16T04:38:09.306Z,5.85
2022-10-16T04:40:39.731Z,5.55
2022-10-16T04:43:08.303Z,6.20
2022-10-16T04:45:35.590Z,6.00
2022-10-16T04:48:03.184Z,5.90
2022-10-16T04:50:30.475Z,5.28
2022-10-16T04:53:01.510Z,5.55
2022-10-16T04:55:29.070Z,5.60
2022-10-16T04:57:56.355Z,5.53
2022-10-16T05:00:23.681Z,5.80
2022-10-16T05:02:52.038Z,5.75
2022-10-16T05:05:20.458Z,6.32
2022-10-16T05:07:48.475Z,6.32
2022-10-16T05:10:16.351Z,5.93
2022-10-16T05:12:44.361Z,7.07
2022-10-16T05:15:11.692Z,7.43
2022-10-16T05:17:42.560Z,7.47
2022-10-16T05:20:13.046Z,7.50
2022-10-16T05:22:40.622Z,6.68
2022-10-16T05:25:07.984Z,7.32
2022-10-16T05:27:35.276Z,7.78
2022-10-16T05:30:03.017Z,9.18
2022-10-16T05:32:30.372Z,15.38
2022-10-16T05:34:57.727Z,14.25
2022-10-16T05:37:25.559Z,10.93
2022-10-16T05:39:53.048Z,8.85
2022-10-16T05:42:20.331Z,9.00
2022-10-16T05:44:47.888Z,8.77
2022-10-16T05:47:15.435Z,7.80
2022-10-16T05:49:42.747Z,7.87
2022-10-16T05:52:10.297Z,7.62
2022-10-16T05:54:37.597Z,8.38
2022-10-16T05:57:06.624Z,6.68
2022-10-16T05:59:34.187Z,7.68
2022-10-16T06:02:01.486Z,7.15
2022-10-16T06:04:29.044Z,7.37
2022-10-16T06:07:01.205Z,8.07
2022-10-16T06:09:28.787Z,9.15
2022-10-16T06:11:56.410Z,7.85
2022-10-16T06:14:23.726Z,6.97
2022-10-16T06:16:51.286Z,6.40
2022-10-16T06:19:19.420Z,7.18
2022-10-16T06:21:47.041Z,6.82
2022-10-16T06:24:14.655Z,6.43
2022-10-16T06:26:41.943Z,6.82
2022-10-16T06:29:09.484Z,6.07
2022-10-16T06:31:37.115Z,6.45
2022-10-16T06:34:06.611Z,7.18
2022-10-16T06:36:33.891Z,6.82
2022-10-16T06:39:01.554Z,7.05
2022-10-16T06:41:28.860Z,6.85
2022-10-16T06:43:57.019Z,6.62
2022-10-16T06:46:25.838Z,6.40
2022-10-16T06:48:55.952Z,6.32
2022-10-16T06:51:24.949Z,6.35
2022-10-16T06:54:03.456Z,6.10
2022-10-16T06:56:32.851Z,7.65
2022-10-16T06:59:00.955Z,7.28
2022-10-16T07:01:28.540Z,6.90
2022-10-16T07:03:55.882Z,7.22
2022-10-16T07:06:25.068Z,6.47
2022-10-16T07:08:52.383Z,6.40
2022-10-16T07:11:21.980Z,6.28
2022-10-16T07:13:54.429Z,5.75
2022-10-16T07:16:28.522Z,6.72
2022-10-16T07:19:00.650Z,6.07
2022-10-16T07:21:30.819Z,6.03
2022-10-16T07:24:00.443Z,6.75
2022-10-16T07:26:28.919Z,6.87
2022-10-16T07:28:57.707Z,6.40
2022-10-16T07:31:25.955Z,6.68
2022-10-16T07:33:53.579Z,7.10
2022-10-16T07:36:21.669Z,6.40
2022-10-16T07:38:51.033Z,6.70
2022-10-16T07:41:20.892Z,6.07
2022-10-16T07:43:49.647Z,6.53
2022-10-16T07:46:18.029Z,7.65
2022-10-16T07:48:47.971Z,6.93
2022-10-16T07:51:17.917Z,6.72
2022-10-16T07:53:45.782Z,6.60
2022-10-16T07:56:13.507Z,6.72
2022-10-16T07:58:40.939Z,6.28
2022-10-16T08:01:10.744Z,6.85
2022-10-16T08:03:38.710Z,6.32
2022-10-16T08:06:06.254Z,6.87
2022-10-16T08:08:33.680Z,6.35
2022-10-16T08:11:01.225Z,6.18
2022-10-16T08:13:28.501Z,6.32
2022-10-16T08:15:56.283Z,6.07
2022-10-16T08:18:24.002Z,7.05
2022-10-16T08:20:58.962Z,6.53
2022-10-16T08:23:27.461Z,7.00
2022-10-16T08:25:55.647Z,6.78
2022-10-16T08:28:23.659Z,6.37
2022-10-16T08:30:51.286Z,6.00
2022-10-16T08:33:18.676Z,6.50
2022-10-16T08:35:54.440Z,6.22
2022-10-16T08:38:22.397Z,6.45
2022-10-16T08:40:52.767Z,6.72
2022-10-16T08:43:21.984Z,5.97
2022-10-16T08:45:58.693Z,5.43
2022-10-16T08:48:30.425Z,6.28
2022-10-16T08:50:58.084Z,5.62
2022-10-16T08:53:32.531Z,5.82
2022-10-16T08:56:00.237Z,5.78
2022-10-16T08:58:29.667Z,6.62
2022-10-16T09:01:00.147Z,6.18
2022-10-16T09:04:05.422Z,6.50
2022-10-16T09:06:57.215Z,6.32
2022-10-16T09:09:42.415Z,9.10
2022-10-16T09:12:15.400Z,6.50
2022-10-16T09:14:58.024Z,6.50
2022-10-16T09:20:12.845Z,6.53
2022-10-16T09:22:40.374Z,6.68
2022-10-16T09:25:19.148Z,6.93
2022-10-16T09:27:49.236Z,6.55
2022-10-16T09:30:21.350Z,6.25
2022-10-16T09:32:51.281Z,7.00
2022-10-16T09:35:21.722Z,6.97
2022-10-16T09:37:51.127Z,6.93
2022-10-16T09:40:36.633Z,6.82
2022-10-16T09:43:19.151Z,6.80
2022-10-16T09:45:59.904Z,6.15
2022-10-16T09:48:45.140Z,5.90
2022-10-16T09:51:26.889Z,7.18
2022-10-16T09:54:02.325Z,6.83
2022-10-16T09:56:33.546Z,6.85
2022-10-16T09:59:04.086Z,6.78
2022-10-16T10:01:38.576Z,6.25
2022-10-16T10:04:06.681Z,6.90
2022-10-16T10:06:48.467Z,6.05
2022-10-16T10:09:25.829Z,6.40
2022-10-16T10:12:00.423Z,6.47
2022-10-16T10:14:38.825Z,7.03
2022-10-16T10:17:06.217Z,6.47
2022-10-16T10:19:41.532Z,6.37
2022-10-16T10:22:21.071Z,6.18
2022-10-16T10:25:00.475Z,6.28
2022-10-16T10:27:35.875Z,5.90
2022-10-16T10:30:26.379Z,5.75
2022-10-16T10:33:21.179Z,5.75
2022-10-16T10:36:31.894Z,6.43
2022-10-16T10:39:07.254Z,6.00
2022-10-16T10:42:01.816Z,5.80
2022-10-16T10:44:53.908Z,5.70
2022-10-16T10:47:53.127Z,5.68
2022-10-16T10:50:35.694Z,5.25
2022-10-16T10:53:40.052Z,5.45
2022-10-16T10:56:46.378Z,5.78
2022-10-16T10:59:41.104Z,4.72
2022-10-16T11:02:27.061Z,5.10
2022-10-16T11:05:32.278Z,4.80
2022-10-16T11:08:03.441Z,5.00
2022-10-16T11:10:52.980Z,4.95
2022-10-16T11:13:27.327Z,5.22
2022-10-16T11:15:58.812Z,4.78
2022-10-16T11:18:38.805Z,4.93
2022-10-16T11:21:11.793Z,5.47
2022-10-16T11:24:20.604Z,5.18
2022-10-16T11:26:49.039Z,5.00
2022-10-16T11:29:21.915Z,4.80
2022-10-16T11:31:53.915Z,4.40
2022-10-16T11:34:38.652Z,4.60
2022-10-16T11:37:22.504Z,4.50
2022-10-16T11:39:51.361Z,4.35
2022-10-16T11:42:34.452Z,3.87
2022-10-16T11:45:08.176Z,4.12
2022-10-16T11:50:32.819Z,4.18
2022-10-16T11:53:06.082Z,3.95
2022-10-16T11:55:44.553Z,3.80
2022-10-16T11:58:31.801Z,3.85
2022-10-16T12:01:02.088Z,3.62
2022-10-16T12:03:44.966Z,3.87
2022-10-16T12:06:27.076Z,4.78
2022-10-16T12:08:55.060Z,4.28
2022-10-16T12:11:28.415Z,3.92
2022-10-16T12:14:21.440Z,4.18
2022-10-16T12:16:57.373Z,4.05
2022-10-16T12:19:27.572Z,3.35
2022-10-16T12:22:00.370Z,4.22
2022-10-16T12:24:34.076Z,3.90
2022-10-16T12:27:01.803Z,3.28
2022-10-16T12:29:39.079Z,4.00
2022-10-16T12:35:24.981Z,4.00
2022-10-16T12:37:52.930Z,3.90
2022-10-16T12:40:30.065Z,4.10
2022-10-16T12:42:57.673Z,4.37
2022-10-16T12:45:33.506Z,4.22
2022-10-16T12:48:02.945Z,3.40
2022-10-16T12:50:32.384Z,3.85
2022-10-16T12:53:01.192Z,4.10
2022-10-16T12:55:43.241Z,3.92
2022-10-16T12:58:40.698Z,3.92
2022-10-16T13:01:23.484Z,4.03
2022-10-16T13:04:19.322Z,3.50
2022-10-16T13:06:54.379Z,4.37
2022-10-16T13:09:29.155Z,3.53
2022-10-16T13:12:15.515Z,3.42
2022-10-16T13:15:18.708Z,3.92
2022-10-16T13:17:54.959Z,3.62
2022-10-16T13:20:24.907Z,3.40
2022-10-16T13:22:57.380Z,4.00
2022-10-16T13:25:40.783Z,4.00
2022-10-16T13:28:09.629Z,4.00
2022-10-16T13:30:41.505Z,3.87
2022-10-16T13:33:21.277Z,3.92
2022-10-16T13:35:51.693Z,3.70
2022-10-16T13:38:20.718Z,4.07
2022-10-16T13:40:52.125Z,3.80
2022-10-16T13:43:21.423Z,3.30
2022-10-16T13:46:18.725Z,3.78
2022-10-16T13:49:04.197Z,3.50
2022-10-16T13:51:32.551Z,3.85
2022-10-16T13:54:00.510Z,3.85
2022-10-16T13:56:30.219Z,3.72
2022-10-16T13:59:05.398Z,4.15
2022-10-16T14:01:41.856Z,3.80
2022-10-16T14:04:11.471Z,3.80
2022-10-16T14:06:42.757Z,4.12
2022-10-16T14:09:31.027Z,3.15
2022-10-16T14:12:03.651Z,4.10
2022-10-16T14:14:36.848Z,3.55
2022-10-16T14:17:04.275Z,3.62
2022-10-16T14:19:32.485Z,3.67
2022-10-16T14:22:01.045Z,3.83
2022-10-16T14:24:33.390Z,3.75
2022-10-16T14:27:01.574Z,4.18
2022-10-16T14:29:32.481Z,4.32
2022-10-16T14:32:02.035Z,3.50
2022-10-16T14:34:38.223Z,3.67
2022-10-16T14:37:18.116Z,3.78
2022-10-16T14:39:50.409Z,4.03
2022-10-16T14:42:20.205Z,3.90
2022-10-16T14:44:48.644Z,4.72
2022-10-16T14:47:18.267Z,4.15
2022-10-16T14:49:45.616Z,4.97
2022-10-16T14:52:13.518Z,3.85
2022-10-16T14:54:41.076Z,3.83
2022-10-16T14:57:18.974Z,4.00
2022-10-16T14:59:47.215Z,4.40
2022-10-16T15:02:35.167Z,4.32
2022-10-16T15:05:15.712Z,4.62
2022-10-16T15:07:43.344Z,5.05
2022-10-16T15:10:11.438Z,4.40
2022-10-16T15:12:38.851Z,4.45
2022-10-16T15:15:21.659Z,4.05
2022-10-16T15:18:01.233Z,3.95
2022-10-16T15:20:31.071Z,3.53
2022-10-16T15:22:58.659Z,3.70
2022-10-16T15:25:35.614Z,3.53
2022-10-16T15:28:04.596Z,3.58
2022-10-16T15:30:32.059Z,4.50
2022-10-16T15:32:59.659Z,3.58
2022-10-16T15:35:27.240Z,3.47
2022-10-16T15:37:54.886Z,4.18
2022-10-16T15:40:23.532Z,3.67
2022-10-16T15:42:51.122Z,3.42
2022-10-16T15:45:20.033Z,4.12
2022-10-16T15:47:47.560Z,4.65
2022-10-16T15:50:16.516Z,4.70
2022-10-16T15:52:43.937Z,4.47
2022-10-16T15:55:12.811Z,4.62
2022-10-16T15:57:42.242Z,5.03
2022-10-16T16:00:14.443Z,5.18
2022-10-16T16:02:43.091Z,6.28
2022-10-16T16:05:11.900Z,7.43
2022-10-16T16:07:40.282Z,7.65
2022-10-16T16:10:09.425Z,8.52
2022-10-16T16:12:37.548Z,9.73
2022-10-16T16:15:06.760Z,11.52
2022-10-16T16:17:35.393Z,12.27
2022-10-16T16:20:03.243Z,12.75
2022-10-16T16:22:31.016Z,12.48
2022-10-16T16:24:58.900Z,12.25
2022-10-16T16:27:26.764Z,13.10
2022-10-16T16:29:56.169Z,11.23
2022-10-16T16:32:23.754Z,11.07
2022-10-16T16:34:51.040Z,10.48
2022-10-16T16:37:18.385Z,10.25
2022-10-16T16:39:46.136Z,11.45
2022-10-16T16:42:13.669Z,12.43
2022-10-16T16:44:40.963Z,15.18
2022-10-16T16:47:08.539Z,17.70
2022-10-16T16:49:36.133Z,24.15
2022-10-16T16:52:03.596Z,19.80
2022-10-16T16:54:31.292Z,17.98
2022-10-16T16:56:58.688Z,17.08
2022-10-16T16:59:26.056Z,17.58
2022-10-16T17:01:56.977Z,18.05
2022-10-16T17:04:24.887Z,19.65
2022-10-16T17:06:54.049Z,23.25
2022-10-16T17:09:22.064Z,21.95
2022-10-16T17:11:49.607Z,22.00
2022-10-16T17:14:16.945Z,22.42
2022-10-16T17:16:45.004Z,21.27
2022-10-16T17:19:15.624Z,21.05
2022-10-16T17:21:43.342Z,21.27
2022-10-16T17:24:11.339Z,21.98
2022-10-16T17:26:41.317Z,20.98
2022-10-16T17:29:11.703Z,20.15
2022-10-16T17:31:39.342Z,20.33
2022-10-16T17:34:08.445Z,18.12
2022-10-16T17:36:37.223Z,18.52
2022-10-16T17:39:07.937Z,19.83
2022-10-16T17:41:36.677Z,20.27
2022-10-16T17:44:05.263Z,21.75
2022-10-16T17:46:36.958Z,26.80
2022-10-16T17:49:07.531Z,25.55
2022-10-16T17:51:35.171Z,26.25
2022-10-16T17:54:03.119Z,24.20
2022-10-16T17:56:30.956Z,28.73
2022-10-16T17:59:00.830Z,31.02
2022-10-16T18:01:33.593Z,26.17
2022-10-16T18:04:07.245Z,26.00
2022-10-16T18:06:34.707Z,28.23
2022-10-16T18:09:02.952Z,29.63
2022-10-16T18:11:30.703Z,29.80
2022-10-16T18:13:59.166Z,30.62
2022-10-16T18:16:28.147Z,31.05
2022-10-16T18:18:59.570Z,31.90
2022-10-16T18:21:28.382Z,30.37
2022-10-16T18:23:57.714Z,29.45
2022-10-16T18:26:25.182Z,29.90
2022-10-16T18:28:54.236Z,29.33
2022-10-16T18:31:23.077Z,28.02
2022-10-16T18:33:51.399Z,28.48
2022-10-16T18:36:21.574Z,26.20
2022-10-16T18:38:48.996Z,25.02
2022-10-16T18:41:16.559Z,25.17
2022-10-16T18:43:44.405Z,23.30
2022-10-16T18:46:14.296Z,23.70
2022-10-16T18:48:42.307Z,24.23
2022-10-16T18:51:17.870Z,22.90
2022-10-16T18:53:48.586Z,24.00
2022-10-16T18:56:17.774Z,22.60
2022-10-16T18:58:48.219Z,21.00
2022-10-16T19:01:20.925Z,21.58
2022-10-16T19:03:49.457Z,21.02
2022-10-16T19:06:17.202Z,20.73
2022-10-16T19:08:44.628Z,21.05
2022-10-16T19:11:13.874Z,24.73
2022-10-16T19:13:42.539Z,28.55
2022-10-16T19:16:20.466Z,28.87
2022-10-16T19:18:50.561Z,23.27
2022-10-16T19:21:18.581Z,22.87
2022-10-16T19:23:46.057Z,25.17
2022-10-16T19:26:16.222Z,24.17
2022-10-16T19:28:44.739Z,22.42
2022-10-16T19:31:14.885Z,20.62
2022-10-16T19:33:42.619Z,18.75
2022-10-16T19:36:18.465Z,20.27
2022-10-16T19:38:46.668Z,21.55
2022-10-16T19:41:17.106Z,21.77
2022-10-16T19:43:45.094Z,22.75
2022-10-16T19:46:15.140Z,20.55
2022-10-16T19:48:42.954Z,17.45
2022-10-16T19:51:18.474Z,16.70
2022-10-16T19:53:47.091Z,16.40
2022-10-16T19:56:22.072Z,17.70
2022-10-16T19:58:50.869Z,17.67
2022-10-16T20:01:18.541Z,17.35
2022-10-16T20:03:47.383Z,14.87
2022-10-16T20:06:17.293Z,14.77
2022-10-16T20:08:45.852Z,16.30
2022-10-16T20:11:16.136Z,17.12
2022-10-16T20:13:43.811Z,17.00
2022-10-16T20:16:12.289Z,15.05
2022-10-16T20:18:40.851Z,15.82
2022-10-16T20:21:13.532Z,15.90
2022-10-16T20:23:41.404Z,18.20
2022-10-16T20:26:11.452Z,16.87
2022-10-16T20:28:40.544Z,15.40
2022-10-16T20:31:23.461Z,16.33
2022-10-16T20:33:52.263Z,14.13
2022-10-16T20:36:21.597Z,17.27
2022-10-16T20:38:49.201Z,16.83
2022-10-16T20:41:17.021Z,19.98
2022-10-16T20:43:46.967Z,18.12
2022-10-16T20:46:16.637Z,16.85
2022-10-16T20:48:44.717Z,18.15
2022-10-16T20:51:16.019Z,17.05
2022-10-16T20:53:45.335Z,17.33
2022-10-16T20:56:15.721Z,18.05
2022-10-16T20:58:43.454Z,18.37
2022-10-16T21:01:13.666Z,19.73
2022-10-16T21:03:41.485Z,18.50
2022-10-16T21:06:09.607Z,19.00
2022-10-16T21:08:42.094Z,19.67
2022-10-16T21:11:21.038Z,18.62
2022-10-16T21:13:49.191Z,18.67
2022-10-16T21:16:17.199Z,19.00
2022-10-16T21:18:45.052Z,17.33
2022-10-16T21:21:20.530Z,17.98
2022-10-16T21:23:49.224Z,15.23
2022-10-16T21:26:18.126Z,14.75
2022-10-16T21:28:45.485Z,14.98
2022-10-16T21:31:18.673Z,13.70
2022-10-16T21:33:46.907Z,13.45
2022-10-16T21:36:29.245Z,13.30
2022-10-16T21:39:01.047Z,12.75
2022-10-16T21:41:29.168Z,13.10
2022-10-16T21:43:57.511Z,12.73
2022-10-16T21:46:27.179Z,12.13
2022-10-16T21:48:56.339Z,12.00
2022-10-16T21:51:28.368Z,14.10
2022-10-16T21:56:23.476Z,14.07
2022-10-16T21:58:50.770Z,13.98
2022-10-16T22:01:21.129Z,14.25
2022-10-16T22:03:48.946Z,13.85
2022-10-16T22:06:18.594Z,13.15
2022-10-16T22:08:47.836Z,12.75
2022-10-16T22:11:22.011Z,11.10
2022-10-16T22:13:54.169Z,11.98
2022-10-16T22:16:26.104Z,12.13
2022-10-16T22:18:54.702Z,12.65
2022-10-16T22:21:22.359Z,11.65
2022-10-16T22:23:50.056Z,12.27
2022-10-16T22:26:17.355Z,11.88
2022-10-16T22:28:44.691Z,11.32
2022-10-16T22:31:13.985Z,12.37
2022-10-16T22:33:41.488Z,11.23
2022-10-16T22:36:11.880Z,11.20
2022-10-16T22:38:39.733Z,11.15
2022-10-16T22:41:09.946Z,10.80
2022-10-16T22:43:43.063Z,10.90
2022-10-16T22:46:16.002Z,10.85
2022-10-16T22:48:43.375Z,10.93
2022-10-16T22:51:16.582Z,10.18
2022-10-16T22:53:49.040Z,10.13
2022-10-16T22:56:18.211Z,10.13
2022-10-16T22:58:45.552Z,10.30
2022-10-16T23:01:37.311Z,10.77
2022-10-16T23:04:05.527Z,9.52
2022-10-16T23:06:33.652Z,10.07
2022-10-16T23:09:02.082Z,10.45
2022-10-16T23:11:30.717Z,10.70
2022-10-16T23:13:58.059Z,10.55
2022-10-16T23:16:25.540Z,9.52
2022-10-16T23:18:53.185Z,9.40
2022-10-16T23:21:23.372Z,9.60
2022-10-16T23:23:51.804Z,9.07
2022-10-16T23:26:21.656Z,9.60
2022-10-16T23:28:49.104Z,9.57
2022-10-16T23:31:17.001Z,9.40
2022-10-16T23:33:44.748Z,9.80
2022-10-16T23:36:14.980Z,9.93
2022-10-16T23:38:43.318Z,8.85
2022-10-16T23:41:11.390Z,8.90
2022-10-16T23:43:38.938Z,9.68
2022-10-16T23:46:07.468Z,9.57
2022-10-16T23:48:35.207Z,9.60
2022-10-16T23:51:02.490Z,9.68
2022-10-16T23:53:29.925Z,8.48
2022-10-16T23:55:57.493Z,8.57
2022-10-16T23:58:24.811Z,9.07
